Aeroporto :
LOGIN :

Iscrizione | Disclaimer

   EN    FR    IT 

 










Sommario :    VFR   VFR Marginale   IFR   IFR Intensivo   IFR Molto Intensivo
Visibilità : 
Base nubi : 
>= 8 km
>= 3000ft
5 / 8 km
1000 / 3000 ft
1500m / 5 km
500 / 1000 ft
800 / 1500m
200 / 500 ft
< 800m
< 200 ft
Simboli :   Temporali  Nebbia  Neve Forte  Precipitazioni Forti  Vento > 20 kt
SIGMETs :   Varie  Temporali  Ghiacco  Turbolenza  Onda orograficha  Ceneri Vulcaniche






- Altitudine del aeroporto : 22 ft
- Codice IATA : FSS


EGQK - RAF Kinloss

ULTIMO METAR :
  • 031750Z AUTO 30006KT 9999 -RADZ BKN026/// SCT050/// 06/02 Q1011

METARs OBSOLETI :
  • 031650Z AUTO 25010KT 9999 ///////// 07/00 Q1010
  • 031550Z 25010KT 9999 FEW023 BKN070 07/01 Q1010 BLU

TAF TAF EGQK
Valido dal 03 a 12 ore il 04 a 06 ore UTC


031044Z 0312/0406 28012KT 9999 FEW020 SCT040
PROB30
TEMPO 0312/0318 4000 SHRASN SCT014CB
PROB30
TEMPO 0323/0406 7000 RA SCT022



MetMap, La meteo Aeronautica in un colpo d'occhio ! - Copyright ORBIFLY Dicembre 2007 - Disclaimer

ORBIFLY MET'MAP TEAM :

Programmazione e sviluppo : Alexandra Zaïnal
Concezione : Baudouin d'Aumeries
Aiuto per la programmazione : Marc-Olivier Méhu
Supporto tecnico e logistico : Manuel Goepfert
Aiuto per la traduzione : Arnaldo La Scala

Contatto : metmap@orbifly.com




FONTI E CREDITI :

   NOAA